Llantwit Major, United Kingdom
Current Conditions -  °F | °C
As of 1:50 PM on Wednesday 26 Nov 2014 (Local Time) from EGDX Reporting Station
Haze Haze  
Wind Chill: 48°   Ceiling: 2400
Heat Index: 48°   Visibility: 4mi
Dew Point: 45°   Wind: 2mph
Humidity: 87%   Direction: 320°NW
Pressure: 29.83"   Gusts: NA
Location:  51.41°N, 3.49°W
Report Text: EGDX 261350Z 32002KT 7000 BR FEW010 BKN024 BKN035 09/07 Q1010 WHT
Loading
Personal Weather Stations






























Interactive Weather Map New forecast layout! Learn more

10-Day Weather Forecast

Advertisements
Track Severe Weather on mobile